createdAt,value
2017-10-11T00:00:46.070Z,66.50
2017-10-11T00:03:13.579Z,66.70
2017-10-11T00:05:41.126Z,66.80
2017-10-11T00:08:09.488Z,66.90
2017-10-11T00:10:36.992Z,66.90
2017-10-11T00:13:04.786Z,66.90
2017-10-11T00:15:32.329Z,67.00
2017-10-11T00:18:00.589Z,66.90
2017-10-11T00:20:28.169Z,66.80
2017-10-11T00:22:56.453Z,66.90
2017-10-11T00:25:24.745Z,67.10
2017-10-11T00:27:52.821Z,67.10
2017-10-11T00:30:20.323Z,67.10
2017-10-11T00:32:47.846Z,67.20
2017-10-11T00:35:15.376Z,67.40
2017-10-11T00:37:43.728Z,67.60
2017-10-11T00:40:12.169Z,67.60
2017-10-11T00:42:39.773Z,67.60
2017-10-11T00:45:08.152Z,67.60
2017-10-11T00:47:35.745Z,67.70
2017-10-11T00:50:03.344Z,67.60
2017-10-11T00:52:31.315Z,67.50
2017-10-11T00:54:58.919Z,67.30
2017-10-11T00:57:27.207Z,67.30
2017-10-11T00:59:54.758Z,67.30
2017-10-11T01:02:23.078Z,67.40
2017-10-11T01:04:50.579Z,67.30
2017-10-11T01:07:18.918Z,67.30
2017-10-11T01:09:46.449Z,67.30
2017-10-11T01:12:13.987Z,67.10
2017-10-11T01:14:42.287Z,67.10
2017-10-11T01:17:09.803Z,67.00
2017-10-11T01:19:37.380Z,67.10
2017-10-11T01:22:05.658Z,67.00
2017-10-11T01:24:33.818Z,66.80
2017-10-11T01:27:01.392Z,67.10
2017-10-11T01:29:29.658Z,67.30
2017-10-11T01:31:57.957Z,67.50
2017-10-11T01:34:26.197Z,67.30
2017-10-11T01:36:53.825Z,67.40
2017-10-11T01:39:21.404Z,67.40
2017-10-11T01:41:48.916Z,67.30
2017-10-11T01:44:16.523Z,67.30
2017-10-11T01:46:44.077Z,67.30
2017-10-11T01:49:12.922Z,67.20
2017-10-11T01:51:40.431Z,67.00
2017-10-11T01:54:07.995Z,66.90
2017-10-11T01:56:35.547Z,67.50
2017-10-11T01:59:03.118Z,66.90
2017-10-11T02:01:30.680Z,66.80
2017-10-11T02:03:58.629Z,66.70
2017-10-11T02:06:26.950Z,66.70
2017-10-11T02:08:54.486Z,66.50
2017-10-11T02:11:21.993Z,66.60
2017-10-11T02:13:49.509Z,66.80
2017-10-11T02:16:17.053Z,66.90
2017-10-11T02:18:44.642Z,67.00
2017-10-11T02:21:12.940Z,67.20
2017-10-11T02:23:40.541Z,67.10
2017-10-11T02:26:08.199Z,67.10
2017-10-11T02:28:35.836Z,67.00
2017-10-11T02:31:03.434Z,67.20
2017-10-11T02:33:31.039Z,67.40
2017-10-11T02:35:59.341Z,67.20
2017-10-11T02:38:26.936Z,67.20
2017-10-11T02:40:54.495Z,67.00
2017-10-11T02:43:22.004Z,66.90
2017-10-11T02:45:49.568Z,66.80
2017-10-11T02:48:17.072Z,66.60
2017-10-11T02:50:44.583Z,66.70
2017-10-11T02:53:12.125Z,66.70
2017-10-11T02:55:40.384Z,66.80
2017-10-11T02:58:07.908Z,66.80
2017-10-11T03:00:35.476Z,66.70
2017-10-11T03:03:03.039Z,66.80
2017-10-11T03:05:30.577Z,66.70
2017-10-11T03:07:58.074Z,66.60
2017-10-11T03:10:25.651Z,66.40
2017-10-11T03:12:53.978Z,66.10
2017-10-11T03:15:21.512Z,66.10
2017-10-11T03:17:49.034Z,66.10
2017-10-11T03:20:16.689Z,66.30
2017-10-11T03:22:44.245Z,66.20
2017-10-11T03:25:11.762Z,66.20
2017-10-11T03:27:40.150Z,66.10
2017-10-11T03:30:07.652Z,65.90
2017-10-11T03:32:35.238Z,65.90
2017-10-11T03:35:02.815Z,65.70
2017-10-11T03:37:30.332Z,65.60
2017-10-11T03:39:57.867Z,65.50
2017-10-11T03:42:25.458Z,65.40
2017-10-11T03:44:53.753Z,65.10
2017-10-11T03:47:22.032Z,65.20
2017-10-11T03:49:50.321Z,65.30
2017-10-11T03:52:17.848Z,65.30
2017-10-11T03:54:45.394Z,65.40
2017-10-11T03:57:13.824Z,65.10
2017-10-11T03:59:41.357Z,65.20
2017-10-11T04:02:08.883Z,65.30
2017-10-11T04:04:36.408Z,65.30
2017-10-11T04:07:03.921Z,65.20
2017-10-11T04:09:32.223Z,65.20
2017-10-11T04:11:59.764Z,65.10
2017-10-11T04:14:27.264Z,65.90
2017-10-11T04:16:55.542Z,65.10
2017-10-11T04:19:23.063Z,64.90
2017-10-11T04:21:51.387Z,65.00
2017-10-11T04:24:18.918Z,65.00
2017-10-11T04:26:46.957Z,65.00
2017-10-11T04:29:14.520Z,65.00
2017-10-11T04:31:42.869Z,65.40
2017-10-11T04:34:10.419Z,64.60
2017-10-11T04:36:38.178Z,64.70
2017-10-11T04:39:07.086Z,64.80
2017-10-11T04:41:34.639Z,64.60
2017-10-11T04:44:02.188Z,64.50
2017-10-11T04:46:29.757Z,64.40
2017-10-11T04:48:57.283Z,64.60
2017-10-11T04:51:24.893Z,64.20
2017-10-11T04:53:52.504Z,64.00
2017-10-11T04:56:20.084Z,64.00
2017-10-11T04:58:47.665Z,63.80
2017-10-11T05:01:15.203Z,63.60
2017-10-11T05:03:42.734Z,63.90
2017-10-11T05:06:10.296Z,63.50
2017-10-11T05:08:37.867Z,63.30
2017-10-11T05:11:05.415Z,63.50
2017-10-11T05:13:32.935Z,63.50
2017-10-11T05:16:00.482Z,63.20
2017-10-11T05:18:28.050Z,62.90
2017-10-11T05:20:55.576Z,62.70
2017-10-11T05:23:24.021Z,62.50
2017-10-11T05:25:51.552Z,62.40
2017-10-11T05:28:19.094Z,62.10
2017-10-11T05:30:48.047Z,62.10
2017-10-11T05:33:16.328Z,62.20
2017-10-11T05:35:44.132Z,62.10
2017-10-11T05:38:11.659Z,62.10
2017-10-11T05:40:39.212Z,61.90
2017-10-11T05:43:06.778Z,61.80
2017-10-11T05:45:34.445Z,61.40
2017-10-11T05:48:01.991Z,61.20
2017-10-11T05:50:30.252Z,61.20
2017-10-11T05:52:57.754Z,60.80
2017-10-11T05:55:25.383Z,61.10
2017-10-11T05:57:52.908Z,60.70
2017-10-11T06:00:20.486Z,60.60
2017-10-11T06:02:48.761Z,60.80
2017-10-11T06:05:17.049Z,60.60
2017-10-11T06:07:44.653Z,60.50
2017-10-11T06:10:12.603Z,60.40
2017-10-11T06:12:40.134Z,60.70
2017-10-11T06:15:08.244Z,60.50
2017-10-11T06:17:35.746Z,60.40
2017-10-11T06:20:03.556Z,60.50
2017-10-11T06:22:31.080Z,60.50
2017-10-11T06:24:58.597Z,60.40
2017-10-11T06:27:26.190Z,60.20
2017-10-11T06:29:53.714Z,60.00
2017-10-11T06:32:21.784Z,59.70
2017-10-11T06:34:49.341Z,59.50
2017-10-11T06:37:16.870Z,59.90
2017-10-11T06:39:44.428Z,59.20
2017-10-11T06:42:11.960Z,59.20
2017-10-11T06:44:41.290Z,59.20
2017-10-11T06:47:08.830Z,59.20
2017-10-11T06:49:36.331Z,58.90
2017-10-11T06:52:03.894Z,59.20
2017-10-11T06:54:31.404Z,58.90
2017-10-11T06:56:58.917Z,58.90
2017-10-11T06:59:26.654Z,59.00
2017-10-11T07:01:54.163Z,59.00
2017-10-11T07:04:21.706Z,59.10
2017-10-11T07:06:49.269Z,59.10
2017-10-11T07:09:16.781Z,59.00
2017-10-11T07:11:44.354Z,58.80
2017-10-11T07:14:11.877Z,59.30
2017-10-11T07:16:40.153Z,59.20
2017-10-11T07:19:08.472Z,58.60
2017-10-11T07:21:36.622Z,58.60
2017-10-11T07:24:04.201Z,58.70
2017-10-11T07:26:31.765Z,58.60
2017-10-11T07:28:59.329Z,58.60
2017-10-11T07:31:26.851Z,58.50
2017-10-11T07:33:56.758Z,58.50
2017-10-11T07:36:25.093Z,58.60
2017-10-11T07:38:52.825Z,58.60
2017-10-11T07:41:20.441Z,58.70
2017-10-11T07:43:48.014Z,58.70
2017-10-11T07:46:16.366Z,58.80
2017-10-11T07:48:43.896Z,58.60
2017-10-11T07:51:13.460Z,58.50
2017-10-11T07:53:42.452Z,58.30
2017-10-11T07:56:10.034Z,58.40
2017-10-11T07:58:37.583Z,58.20
2017-10-11T08:01:05.928Z,58.20
2017-10-11T08:03:33.664Z,58.20
2017-10-11T08:06:02.337Z,58.00
2017-10-11T08:08:31.736Z,57.90
2017-10-11T08:10:59.306Z,57.90
2017-10-11T08:13:26.936Z,57.70
2017-10-11T08:15:55.266Z,57.20
2017-10-11T08:18:23.221Z,57.20
2017-10-11T08:20:50.800Z,57.10
2017-10-11T08:23:18.433Z,56.80
2017-10-11T08:25:47.368Z,56.20
2017-10-11T08:28:16.285Z,55.80
2017-10-11T08:30:47.646Z,55.50
2017-10-11T08:33:15.222Z,55.50
2017-10-11T08:35:43.372Z,54.30
2017-10-11T08:38:12.483Z,55.20
2017-10-11T08:40:40.133Z,55.20
2017-10-11T08:43:07.705Z,54.50
2017-10-11T08:45:35.254Z,53.90
2017-10-11T08:48:03.443Z,54.00
2017-10-11T08:50:31.922Z,53.70
2017-10-11T08:52:59.529Z,53.30
2017-10-11T08:55:27.158Z,53.50
2017-10-11T08:57:54.685Z,53.40
2017-10-11T09:00:22.989Z,53.20
2017-10-11T09:02:50.498Z,53.30
2017-10-11T09:05:17.989Z,53.30
2017-10-11T09:07:46.099Z,53.10
2017-10-11T09:10:14.808Z,52.90
2017-10-11T09:12:42.759Z,53.10
2017-10-11T09:15:11.996Z,53.20
2017-10-11T09:17:41.024Z,53.10
2017-10-11T09:20:08.564Z,53.10
2017-10-11T09:22:36.765Z,52.90
2017-10-11T09:25:04.750Z,52.90
2017-10-11T09:27:32.271Z,52.80
2017-10-11T09:30:01.261Z,53.10
2017-10-11T09:32:29.614Z,53.10
2017-10-11T09:34:58.010Z,52.80
2017-10-11T09:37:25.652Z,52.70
2017-10-11T09:39:53.203Z,52.20
2017-10-11T09:42:22.747Z,52.40
2017-10-11T09:44:50.866Z,52.20
2017-10-11T09:47:18.436Z,52.20
2017-10-11T09:49:46.957Z,52.00
2017-10-11T09:52:15.838Z,52.10
2017-10-11T09:54:45.027Z,52.10
2017-10-11T09:57:12.976Z,52.10
2017-10-11T09:59:40.501Z,52.20
2017-10-11T10:02:08.954Z,52.20
2017-10-11T10:04:37.828Z,51.40
2017-10-11T10:07:06.159Z,51.30
2017-10-11T10:09:33.672Z,51.20
2017-10-11T10:12:02.153Z,51.10
2017-10-11T10:14:30.530Z,50.70
2017-10-11T10:16:58.926Z,50.30
2017-10-11T10:19:26.476Z,50.20
2017-10-11T10:21:54.780Z,49.00
2017-10-11T10:24:22.343Z,49.00
2017-10-11T10:26:49.942Z,49.00
2017-10-11T10:29:17.443Z,49.10
2017-10-11T10:31:44.990Z,49.10
2017-10-11T10:34:13.282Z,48.50
2017-10-11T10:36:40.992Z,48.40
2017-10-11T10:39:08.818Z,48.70
2017-10-11T10:41:37.109Z,48.60
2017-10-11T10:44:04.666Z,48.60
2017-10-11T10:46:35.022Z,48.30
2017-10-11T10:49:02.957Z,48.50
2017-10-11T10:51:31.861Z,48.50
2017-10-11T10:54:01.964Z,48.50
2017-10-11T10:56:32.129Z,48.00
2017-10-11T10:59:01.287Z,48.60
2017-10-11T11:01:31.208Z,48.70
2017-10-11T11:04:00.171Z,48.50
2017-10-11T11:06:28.788Z,48.20
2017-10-11T11:08:56.871Z,48.40
2017-10-11T11:11:26.364Z,48.50
2017-10-11T11:13:54.970Z,48.50
2017-10-11T11:16:23.855Z,48.00
2017-10-11T11:18:52.984Z,48.20
2017-10-11T11:21:22.553Z,47.80
2017-10-11T11:23:52.551Z,47.80
2017-10-11T11:26:21.217Z,47.10
2017-10-11T11:28:51.108Z,46.80
2017-10-11T11:31:19.883Z,46.80
2017-10-11T11:33:48.467Z,46.70
2017-10-11T11:36:16.072Z,46.50
2017-10-11T11:38:44.822Z,46.30
2017-10-11T11:41:13.233Z,46.10
2017-10-11T11:43:42.248Z,45.70
2017-10-11T11:46:09.743Z,45.60
2017-10-11T11:48:37.778Z,45.20
2017-10-11T11:51:05.356Z,45.00
2017-10-11T11:53:34.851Z,44.80
2017-10-11T11:56:02.396Z,44.70
2017-10-11T11:58:29.941Z,45.10
2017-10-11T12:00:57.911Z,45.20
2017-10-11T12:03:26.654Z,44.50
2017-10-11T12:05:54.216Z,44.40
2017-10-11T12:08:21.749Z,44.30
2017-10-11T12:10:50.194Z,44.00
2017-10-11T12:13:17.723Z,43.70
2017-10-11T12:15:47.215Z,43.60
2017-10-11T12:18:14.784Z,43.40
2017-10-11T12:20:43.095Z,43.80
2017-10-11T12:23:12.424Z,43.40
2017-10-11T12:25:40.023Z,43.40
2017-10-11T12:28:07.640Z,43.00
2017-10-11T12:30:35.205Z,43.00
2017-10-11T12:33:02.767Z,42.80
2017-10-11T12:35:30.497Z,41.80
2017-10-11T12:37:58.674Z,42.20
2017-10-11T12:40:28.534Z,42.20
2017-10-11T12:42:57.938Z,42.20
2017-10-11T12:45:26.436Z,42.10
2017-10-11T12:47:53.996Z,42.00
2017-10-11T12:50:21.527Z,41.60
2017-10-11T12:52:49.979Z,40.60
2017-10-11T12:55:18.436Z,40.40
2017-10-11T12:57:47.710Z,40.20
2017-10-11T13:00:15.941Z,40.20
2017-10-11T13:02:45.024Z,40.30
2017-10-11T13:05:16.088Z,40.60
2017-10-11T13:07:44.499Z,40.50
2017-10-11T13:10:12.041Z,40.80
2017-10-11T13:12:39.920Z,40.80
2017-10-11T13:15:07.448Z,39.70
2017-10-11T13:17:34.997Z,40.10
2017-10-11T13:20:02.621Z,40.40
2017-10-11T13:22:32.268Z,40.80
2017-10-11T13:25:02.053Z,40.40
2017-10-11T13:27:30.347Z,40.40
2017-10-11T13:29:59.846Z,40.40
2017-10-11T13:32:28.208Z,39.70
2017-10-11T13:34:57.365Z,39.70
2017-10-11T13:37:26.351Z,39.90
2017-10-11T13:39:54.909Z,40.00
2017-10-11T13:42:24.647Z,40.30
2017-10-11T13:44:52.174Z,40.30
2017-10-11T13:47:21.147Z,40.60
2017-10-11T13:49:50.841Z,41.10
2017-10-11T13:52:19.429Z,41.20
2017-10-11T13:54:50.196Z,41.30
2017-10-11T13:57:18.628Z,41.50
2017-10-11T13:59:48.315Z,41.70
2017-10-11T14:02:16.351Z,42.10
2017-10-11T14:04:44.436Z,42.30
2017-10-11T14:07:12.431Z,42.20
2017-10-11T14:09:40.262Z,42.20
2017-10-11T14:12:09.156Z,42.50
2017-10-11T14:14:37.305Z,42.40
2017-10-11T14:17:06.042Z,42.50
2017-10-11T14:19:35.774Z,42.50
2017-10-11T14:22:03.356Z,42.50
2017-10-11T14:24:30.871Z,42.80
2017-10-11T14:26:59.245Z,42.90
2017-10-11T14:29:29.393Z,43.50
2017-10-11T14:31:57.714Z,43.50
2017-10-11T14:34:25.303Z,43.70
2017-10-11T14:36:53.624Z,44.10
2017-10-11T14:39:21.166Z,44.00
2017-10-11T14:41:48.735Z,44.00
2017-10-11T14:44:16.755Z,44.00
2017-10-11T14:46:45.051Z,44.00
2017-10-11T14:49:12.864Z,43.90
2017-10-11T14:51:41.243Z,43.90
2017-10-11T14:54:10.168Z,44.20
2017-10-11T14:56:38.500Z,44.50
2017-10-11T14:59:06.091Z,44.40
2017-10-11T15:01:36.466Z,44.60
2017-10-11T15:04:04.455Z,44.90
2017-10-11T15:06:32.017Z,45.00
2017-10-11T15:09:01.623Z,45.00
2017-10-11T15:11:30.034Z,45.20
2017-10-11T15:13:57.587Z,45.20
2017-10-11T15:16:25.131Z,45.30
2017-10-11T15:18:52.663Z,45.60
2017-10-11T15:21:21.087Z,45.60
2017-10-11T15:23:49.239Z,45.90
2017-10-11T15:29:18.014Z,45.90
2017-10-11T15:31:47.169Z,46.20
2017-10-11T15:34:16.240Z,46.20
2017-10-11T15:36:46.314Z,46.30
2017-10-11T15:39:14.934Z,47.10
2017-10-11T15:41:43.871Z,46.60
2017-10-11T15:44:12.398Z,46.60
2017-10-11T15:46:40.400Z,46.70
2017-10-11T15:49:09.296Z,46.90
2017-10-11T15:51:38.166Z,46.90
2017-10-11T15:54:06.372Z,47.00
2017-10-11T15:56:33.927Z,47.10
2017-10-11T15:59:02.325Z,47.30
2017-10-11T16:01:29.922Z,47.40
2017-10-11T16:03:57.526Z,47.50
2017-10-11T16:06:25.053Z,47.50
2017-10-11T16:08:52.651Z,47.50
2017-10-11T16:11:20.361Z,47.40
2017-10-11T16:13:47.964Z,47.60
2017-10-11T16:16:15.490Z,47.50
2017-10-11T16:18:43.053Z,47.40
2017-10-11T16:21:10.602Z,47.50
2017-10-11T16:23:38.169Z,48.30
2017-10-11T16:26:05.722Z,47.70
2017-10-11T16:28:33.265Z,47.80
2017-10-11T16:31:01.535Z,48.10
2017-10-11T16:33:29.840Z,48.10
2017-10-11T16:35:57.576Z,48.10
2017-10-11T16:38:25.873Z,48.30
2017-10-11T16:40:53.400Z,48.30
2017-10-11T16:43:20.949Z,48.50
2017-10-11T16:45:48.516Z,48.50
2017-10-11T16:48:16.110Z,48.70
2017-10-11T16:50:47.148Z,48.70
2017-10-11T16:53:15.478Z,48.80
2017-10-11T16:55:44.093Z,49.00
2017-10-11T16:58:11.665Z,49.00
2017-10-11T17:00:42.474Z,49.30
2017-10-11T17:03:10.024Z,49.30
2017-10-11T17:05:37.764Z,49.40
2017-10-11T17:08:08.284Z,49.50
2017-10-11T17:10:36.427Z,49.50
2017-10-11T17:13:06.249Z,49.70
2017-10-11T17:15:33.986Z,49.70
2017-10-11T17:18:01.599Z,50.00
2017-10-11T17:20:31.257Z,50.30
2017-10-11T17:23:00.340Z,50.40
2017-10-11T17:38:20.915Z,50.60
2017-10-11T17:40:48.794Z,51.50
2017-10-11T17:43:16.522Z,51.50
2017-10-11T17:58:34.959Z,52.50
2017-10-11T18:01:02.909Z,52.40
2017-10-11T18:03:30.840Z,52.60
2017-10-11T18:05:58.442Z,52.50
2017-10-11T18:08:26.437Z,52.70
2017-10-11T18:10:54.113Z,52.70
2017-10-11T18:13:23.118Z,52.80
2017-10-11T18:15:52.707Z,52.90
2017-10-11T18:18:21.411Z,53.10
2017-10-11T18:20:49.141Z,53.10
2017-10-11T18:23:16.933Z,53.20
2017-10-11T18:25:44.701Z,53.30
2017-10-11T18:28:12.280Z,53.30
2017-10-11T18:30:40.123Z,53.50
2017-10-11T18:33:07.718Z,53.80
2017-10-11T18:35:36.480Z,54.20
2017-10-11T18:38:04.118Z,54.20
2017-10-11T18:40:31.802Z,54.30
2017-10-11T18:42:59.607Z,54.70
2017-10-11T18:45:28.798Z,55.30
2017-10-11T18:47:57.958Z,55.60
2017-10-11T18:50:27.977Z,55.50
2017-10-11T18:52:55.590Z,55.90
2017-10-11T18:55:23.912Z,56.10
2017-10-11T18:57:51.522Z,56.40
2017-10-11T19:00:22.352Z,57.40
2017-10-11T19:02:56.997Z,57.30
2017-10-11T19:05:27.859Z,57.70
2017-10-11T19:07:57.999Z,57.90
2017-10-11T19:10:26.947Z,57.70
2017-10-11T19:12:55.811Z,57.90
2017-10-11T19:15:24.197Z,58.00
2017-10-11T19:17:53.660Z,58.10
2017-10-11T19:20:22.118Z,58.50
2017-10-11T19:22:49.737Z,58.50
2017-10-11T19:25:18.085Z,58.40
2017-10-11T19:27:45.820Z,58.40
2017-10-11T19:30:13.390Z,58.50
2017-10-11T19:32:41.933Z,58.30
2017-10-11T19:35:09.534Z,58.40
2017-10-11T19:37:37.696Z,58.30
2017-10-11T19:40:09.447Z,58.30
2017-10-11T19:42:37.828Z,58.70
2017-10-11T19:45:07.629Z,58.60
2017-10-11T19:47:37.232Z,58.70
2017-10-11T19:50:07.718Z,58.90
2017-10-11T19:52:36.107Z,59.00
2017-10-11T19:55:03.858Z,59.00
2017-10-11T19:57:32.276Z,59.00
2017-10-11T20:00:11.837Z,59.00
2017-10-11T20:02:39.534Z,59.00
2017-10-11T20:05:07.146Z,58.90
2017-10-11T20:07:34.852Z,59.50
2017-10-11T20:10:03.196Z,58.90
2017-10-11T20:12:32.568Z,58.70
2017-10-11T20:15:00.901Z,58.50
2017-10-11T20:17:28.591Z,58.50
2017-10-11T20:19:56.249Z,58.40
2017-10-11T20:22:23.863Z,58.30
2017-10-11T20:24:51.544Z,58.40
2017-10-11T20:27:19.201Z,58.40
2017-10-11T20:29:47.066Z,58.50
2017-10-11T20:32:14.637Z,58.50
2017-10-11T20:34:42.495Z,58.40
2017-10-11T20:37:10.154Z,58.60
2017-10-11T20:39:37.703Z,58.80
2017-10-11T20:42:05.232Z,59.00
2017-10-11T20:44:33.780Z,59.70
2017-10-11T20:47:04.780Z,59.70
2017-10-11T20:49:32.751Z,59.80
2017-10-11T20:52:01.317Z,59.80
2017-10-11T20:54:28.960Z,59.70
2017-10-11T20:56:56.713Z,59.90
2017-10-11T20:59:24.485Z,59.90
2017-10-11T21:01:52.063Z,59.90
2017-10-11T21:04:20.391Z,59.60
2017-10-11T21:06:48.008Z,59.60
2017-10-11T21:09:20.421Z,59.50
2017-10-11T21:11:47.967Z,59.50
2017-10-11T21:14:15.507Z,59.50
2017-10-11T21:16:43.084Z,59.30
2017-10-11T21:19:15.049Z,59.20
2017-10-11T21:21:42.640Z,59.10
2017-10-11T21:24:10.252Z,59.00
2017-10-11T21:26:37.839Z,59.10
2017-10-11T21:29:05.654Z,58.90
2017-10-11T21:31:34.180Z,58.80
2017-10-11T21:34:02.430Z,58.70
2017-10-11T21:36:30.740Z,58.70
2017-10-11T21:38:58.275Z,58.70
2017-10-11T21:41:26.617Z,58.90
2017-10-11T21:43:54.371Z,58.80
2017-10-11T21:46:21.959Z,58.80
2017-10-11T21:48:50.311Z,59.30
2017-10-11T21:51:18.136Z,59.30
2017-10-11T21:53:45.952Z,59.50
2017-10-11T21:56:14.261Z,59.40
2017-10-11T21:58:42.616Z,59.40
2017-10-11T22:01:10.173Z,59.30
2017-10-11T22:03:39.869Z,59.40
2017-10-11T22:06:07.436Z,59.40
2017-10-11T22:08:37.747Z,59.40
2017-10-11T22:11:05.352Z,59.50
2017-10-11T22:13:33.644Z,59.70
2017-10-11T22:16:02.055Z,59.70
2017-10-11T22:18:29.659Z,59.80
2017-10-11T22:20:58.013Z,60.00
2017-10-11T22:23:25.591Z,60.00
2017-10-11T22:25:54.055Z,60.00
2017-10-11T22:28:21.607Z,60.00
2017-10-11T22:30:49.175Z,60.50
2017-10-11T22:33:16.748Z,60.50
2017-10-11T22:35:45.118Z,61.30
2017-10-11T22:38:12.722Z,60.50
2017-10-11T22:40:40.324Z,60.80
2017-10-11T22:43:07.877Z,61.00
2017-10-11T22:45:35.762Z,61.30
2017-10-11T22:48:03.271Z,61.40
2017-10-11T22:50:31.000Z,61.50
2017-10-11T22:52:58.610Z,61.60
2017-10-11T22:55:26.113Z,61.80
2017-10-11T22:57:53.644Z,61.80
2017-10-11T23:00:21.428Z,62.00
2017-10-11T23:02:48.972Z,62.10
2017-10-11T23:05:16.492Z,62.50
2017-10-11T23:07:44.177Z,62.40
2017-10-11T23:10:11.675Z,62.30
2017-10-11T23:12:39.195Z,62.30
2017-10-11T23:15:07.052Z,62.50
2017-10-11T23:17:34.589Z,62.60
2017-10-11T23:20:04.331Z,62.80
2017-10-11T23:22:32.048Z,62.80
2017-10-11T23:25:01.617Z,63.10
2017-10-11T23:27:29.265Z,63.00
2017-10-11T23:29:56.820Z,62.90
2017-10-11T23:32:24.408Z,62.70
2017-10-11T23:34:52.221Z,62.70
2017-10-11T23:37:21.148Z,62.70
2017-10-11T23:39:49.366Z,62.70
2017-10-11T23:42:17.856Z,62.40
2017-10-11T23:44:46.234Z,62.30
2017-10-11T23:47:14.806Z,62.20
2017-10-11T23:49:42.377Z,62.20
2017-10-11T23:52:10.679Z,62.10
2017-10-11T23:54:38.856Z,62.10
2017-10-11T23:57:06.784Z,62.20
2017-10-11T23:59:34.374Z,62.00
